sensor_id;sensor_type;location;lat;lon;timestamp;P1;durP1;ratioP1;P2;durP2;ratioP2
51927;SDS011;37953;52.806;18.270;2023-04-30T00:01:59;17.05;;;8.52;;
51927;SDS011;37953;52.806;18.270;2023-04-30T00:04:26;15.43;;;8.13;;
51927;SDS011;37953;52.806;18.270;2023-04-30T00:06:51;15.75;;;8.65;;
51927;SDS011;37953;52.806;18.270;2023-04-30T00:09:18;15.20;;;8.95;;
51927;SDS011;37953;52.806;18.270;2023-04-30T00:11:44;18.83;;;8.68;;
51927;SDS011;37953;52.806;18.270;2023-04-30T00:14:10;18.08;;;9.10;;
51927;SDS011;37953;52.806;18.270;2023-04-30T00:16:36;15.98;;;8.55;;
51927;SDS011;37953;52.806;18.270;2023-04-30T00:19:02;19.48;;;9.50;;
51927;SDS011;37953;52.806;18.270;2023-04-30T00:21:28;15.07;;;9.10;;
51927;SDS011;37953;52.806;18.270;2023-04-30T00:23:54;16.60;;;8.52;;
51927;SDS011;37953;52.806;18.270;2023-04-30T00:26:20;14.63;;;8.85;;
51927;SDS011;37953;52.806;18.270;2023-04-30T00:28:46;15.23;;;8.55;;
51927;SDS011;37953;52.806;18.270;2023-04-30T00:31:12;25.17;;;9.02;;
51927;SDS011;37953;52.806;18.270;2023-04-30T00:33:38;22.70;;;8.02;;
51927;SDS011;37953;52.806;18.270;2023-04-30T00:36:04;26.27;;;9.15;;
51927;SDS011;37953;52.806;18.270;2023-04-30T00:38:30;25.33;;;8.70;;
51927;SDS011;37953;52.806;18.270;2023-04-30T00:40:56;19.55;;;8.55;;
51927;SDS011;37953;52.806;18.270;2023-04-30T00:43:22;30.85;;;9.52;;
51927;SDS011;37953;52.806;18.270;2023-04-30T00:45:48;35.25;;;10.20;;
51927;SDS011;37953;52.806;18.270;2023-04-30T00:48:14;24.65;;;9.10;;
51927;SDS011;37953;52.806;18.270;2023-04-30T00:50:40;22.42;;;9.38;;
51927;SDS011;37953;52.806;18.270;2023-04-30T00:53:13;27.60;;;9.50;;
51927;SDS011;37953;52.806;18.270;2023-04-30T00:55:40;25.60;;;8.95;;
51927;SDS011;37953;52.806;18.270;2023-04-30T00:58:06;28.48;;;8.95;;
51927;SDS011;37953;52.806;18.270;2023-04-30T01:00:33;23.95;;;8.63;;
51927;SDS011;37953;52.806;18.270;2023-04-30T01:02:59;17.55;;;8.93;;
51927;SDS011;37953;52.806;18.270;2023-04-30T01:05:25;20.40;;;8.43;;
51927;SDS011;37953;52.806;18.270;2023-04-30T01:07:52;17.90;;;8.43;;
51927;SDS011;37953;52.806;18.270;2023-04-30T01:10:20;19.63;;;8.68;;
51927;SDS011;37953;52.806;18.270;2023-04-30T01:12:57;18.48;;;8.98;;
51927;SDS011;37953;52.806;18.270;2023-04-30T01:18:41;20.38;;;9.63;;
51927;SDS011;37953;52.806;18.270;2023-04-30T01:21:11;19.98;;;9.57;;
51927;SDS011;37953;52.806;18.270;2023-04-30T01:23:48;18.85;;;8.75;;
51927;SDS011;37953;52.806;18.270;2023-04-30T01:29:18;48.77;;;11.43;;
51927;SDS011;37953;52.806;18.270;2023-04-30T01:31:45;14.95;;;8.68;;
51927;SDS011;37953;52.806;18.270;2023-04-30T01:34:11;14.45;;;8.50;;
51927;SDS011;37953;52.806;18.270;2023-04-30T01:36:41;17.00;;;8.60;;
51927;SDS011;37953;52.806;18.270;2023-04-30T01:42:19;15.07;;;8.52;;
51927;SDS011;37953;52.806;18.270;2023-04-30T01:50:37;13.77;;;8.43;;
51927;SDS011;37953;52.806;18.270;2023-04-30T01:53:31;13.35;;;8.43;;
51927;SDS011;37953;52.806;18.270;2023-04-30T01:56:20;13.63;;;8.05;;
51927;SDS011;37953;52.806;18.270;2023-04-30T01:58:55;17.25;;;9.23;;
51927;SDS011;37953;52.806;18.270;2023-04-30T02:01:26;14.88;;;8.38;;
51927;SDS011;37953;52.806;18.270;2023-04-30T02:04:11;16.63;;;8.65;;
51927;SDS011;37953;52.806;18.270;2023-04-30T02:06:37;13.93;;;8.02;;
51927;SDS011;37953;52.806;18.270;2023-04-30T02:09:02;15.60;;;8.88;;
51927;SDS011;37953;52.806;18.270;2023-04-30T02:11:30;15.95;;;8.65;;
51927;SDS011;37953;52.806;18.270;2023-04-30T02:13:56;13.30;;;8.20;;
51927;SDS011;37953;52.806;18.270;2023-04-30T02:16:23;15.88;;;8.60;;
51927;SDS011;37953;52.806;18.270;2023-04-30T02:18:49;13.38;;;8.13;;
51927;SDS011;37953;52.806;18.270;2023-04-30T02:21:15;12.65;;;8.18;;
51927;SDS011;37953;52.806;18.270;2023-04-30T02:23:41;16.15;;;8.25;;
51927;SDS011;37953;52.806;18.270;2023-04-30T02:26:07;15.57;;;8.73;;
51927;SDS011;37953;52.806;18.270;2023-04-30T02:28:33;12.65;;;8.20;;
51927;SDS011;37953;52.806;18.270;2023-04-30T02:30:59;12.45;;;8.05;;
51927;SDS011;37953;52.806;18.270;2023-04-30T02:33:25;14.73;;;7.72;;
51927;SDS011;37953;52.806;18.270;2023-04-30T02:35:51;15.48;;;8.50;;
51927;SDS011;37953;52.806;18.270;2023-04-30T02:38:19;15.68;;;8.07;;
51927;SDS011;37953;52.806;18.270;2023-04-30T02:40:45;15.07;;;7.90;;
51927;SDS011;37953;52.806;18.270;2023-04-30T02:43:11;15.68;;;7.80;;
51927;SDS011;37953;52.806;18.270;2023-04-30T02:45:37;14.88;;;8.43;;
51927;SDS011;37953;52.806;18.270;2023-04-30T02:48:03;15.20;;;7.97;;
51927;SDS011;37953;52.806;18.270;2023-04-30T02:50:29;14.35;;;7.80;;
51927;SDS011;37953;52.806;18.270;2023-04-30T02:52:55;15.30;;;8.43;;
51927;SDS011;37953;52.806;18.270;2023-04-30T02:55:21;13.65;;;7.72;;
51927;SDS011;37953;52.806;18.270;2023-04-30T02:57:47;16.95;;;7.65;;
51927;SDS011;37953;52.806;18.270;2023-04-30T03:00:13;14.07;;;7.60;;
51927;SDS011;37953;52.806;18.270;2023-04-30T03:02:39;12.57;;;6.97;;
51927;SDS011;37953;52.806;18.270;2023-04-30T03:05:06;11.68;;;7.20;;
51927;SDS011;37953;52.806;18.270;2023-04-30T03:07:32;13.93;;;7.68;;
51927;SDS011;37953;52.806;18.270;2023-04-30T03:09:58;17.98;;;7.97;;
51927;SDS011;37953;52.806;18.270;2023-04-30T03:12:24;14.80;;;7.18;;
51927;SDS011;37953;52.806;18.270;2023-04-30T03:14:50;13.43;;;7.97;;
51927;SDS011;37953;52.806;18.270;2023-04-30T03:17:16;15.90;;;7.32;;
51927;SDS011;37953;52.806;18.270;2023-04-30T03:19:42;13.82;;;7.78;;
51927;SDS011;37953;52.806;18.270;2023-04-30T03:22:11;12.40;;;7.38;;
51927;SDS011;37953;52.806;18.270;2023-04-30T03:24:37;12.25;;;7.40;;
51927;SDS011;37953;52.806;18.270;2023-04-30T03:27:03;12.85;;;7.22;;
51927;SDS011;37953;52.806;18.270;2023-04-30T03:29:29;13.93;;;7.05;;
51927;SDS011;37953;52.806;18.270;2023-04-30T03:31:55;13.23;;;6.57;;
51927;SDS011;37953;52.806;18.270;2023-04-30T03:34:21;13.25;;;6.88;;
51927;SDS011;37953;52.806;18.270;2023-04-30T03:36:47;15.05;;;7.18;;
51927;SDS011;37953;52.806;18.270;2023-04-30T03:39:13;12.90;;;7.38;;
51927;SDS011;37953;52.806;18.270;2023-04-30T03:41:40;10.85;;;6.70;;
51927;SDS011;37953;52.806;18.270;2023-04-30T03:44:06;12.90;;;6.82;;
51927;SDS011;37953;52.806;18.270;2023-04-30T03:46:40;11.25;;;6.40;;
51927;SDS011;37953;52.806;18.270;2023-04-30T03:49:09;16.30;;;7.10;;
51927;SDS011;37953;52.806;18.270;2023-04-30T03:51:35;11.93;;;7.13;;
51927;SDS011;37953;52.806;18.270;2023-04-30T03:54:06;10.65;;;5.93;;
51927;SDS011;37953;52.806;18.270;2023-04-30T03:56:32;12.35;;;6.53;;
51927;SDS011;37953;52.806;18.270;2023-04-30T03:59:00;11.07;;;6.18;;
51927;SDS011;37953;52.806;18.270;2023-04-30T04:01:26;14.57;;;6.30;;
51927;SDS011;37953;52.806;18.270;2023-04-30T04:03:54;9.52;;;5.70;;
51927;SDS011;37953;52.806;18.270;2023-04-30T04:06:20;16.35;;;7.00;;
51927;SDS011;37953;52.806;18.270;2023-04-30T04:08:46;16.23;;;7.13;;
51927;SDS011;37953;52.806;18.270;2023-04-30T04:11:11;13.85;;;6.60;;
51927;SDS011;37953;52.806;18.270;2023-04-30T04:13:38;11.90;;;6.40;;
51927;SDS011;37953;52.806;18.270;2023-04-30T04:16:04;13.75;;;6.68;;
51927;SDS011;37953;52.806;18.270;2023-04-30T04:18:30;14.50;;;7.15;;
51927;SDS011;37953;52.806;18.270;2023-04-30T04:20:56;12.05;;;6.43;;
51927;SDS011;37953;52.806;18.270;2023-04-30T04:23:22;14.05;;;6.88;;
51927;SDS011;37953;52.806;18.270;2023-04-30T04:25:48;10.27;;;6.47;;
51927;SDS011;37953;52.806;18.270;2023-04-30T04:28:14;11.88;;;6.75;;
51927;SDS011;37953;52.806;18.270;2023-04-30T04:30:41;13.30;;;6.72;;
51927;SDS011;37953;52.806;18.270;2023-04-30T04:33:08;12.88;;;6.97;;
51927;SDS011;37953;52.806;18.270;2023-04-30T04:35:34;10.82;;;6.63;;
51927;SDS011;37953;52.806;18.270;2023-04-30T04:38:01;13.05;;;6.80;;
51927;SDS011;37953;52.806;18.270;2023-04-30T04:40:27;14.48;;;6.97;;
51927;SDS011;37953;52.806;18.270;2023-04-30T04:42:53;13.93;;;7.18;;
51927;SDS011;37953;52.806;18.270;2023-04-30T04:45:20;13.65;;;7.22;;
51927;SDS011;37953;52.806;18.270;2023-04-30T04:47:46;11.77;;;7.53;;
51927;SDS011;37953;52.806;18.270;2023-04-30T04:50:13;14.65;;;6.95;;
51927;SDS011;37953;52.806;18.270;2023-04-30T04:52:39;12.57;;;6.75;;
51927;SDS011;37953;52.806;18.270;2023-04-30T04:55:05;11.77;;;6.65;;
51927;SDS011;37953;52.806;18.270;2023-04-30T04:57:32;12.05;;;6.18;;
51927;SDS011;37953;52.806;18.270;2023-04-30T04:59:58;10.77;;;5.85;;
51927;SDS011;37953;52.806;18.270;2023-04-30T05:02:24;11.98;;;5.78;;
51927;SDS011;37953;52.806;18.270;2023-04-30T05:04:50;11.77;;;5.18;;
51927;SDS011;37953;52.806;18.270;2023-04-30T05:07:16;17.15;;;5.30;;
51927;SDS011;37953;52.806;18.270;2023-04-30T05:09:43;8.88;;;5.00;;
51927;SDS011;37953;52.806;18.270;2023-04-30T05:12:15;9.60;;;4.60;;
51927;SDS011;37953;52.806;18.270;2023-04-30T05:14:41;12.63;;;4.80;;
51927;SDS011;37953;52.806;18.270;2023-04-30T05:17:08;18.58;;;5.03;;
51927;SDS011;37953;52.806;18.270;2023-04-30T05:19:34;12.43;;;4.40;;
51927;SDS011;37953;52.806;18.270;2023-04-30T05:22:00;18.75;;;4.68;;
51927;SDS011;37953;52.806;18.270;2023-04-30T05:24:27;10.90;;;4.47;;
51927;SDS011;37953;52.806;18.270;2023-04-30T05:26:54;11.88;;;4.07;;
51927;SDS011;37953;52.806;18.270;2023-04-30T05:31:47;10.20;;;3.50;;
51927;SDS011;37953;52.806;18.270;2023-04-30T05:34:13;9.00;;;3.95;;
51927;SDS011;37953;52.806;18.270;2023-04-30T05:36:42;6.50;;;3.40;;
51927;SDS011;37953;52.806;18.270;2023-04-30T05:39:09;12.90;;;3.78;;
51927;SDS011;37953;52.806;18.270;2023-04-30T05:41:35;10.43;;;3.80;;
51927;SDS011;37953;52.806;18.270;2023-04-30T05:44:01;13.23;;;3.83;;
51927;SDS011;37953;52.806;18.270;2023-04-30T05:46:29;9.35;;;3.40;;
51927;SDS011;37953;52.806;18.270;2023-04-30T05:48:55;10.80;;;3.30;;
51927;SDS011;37953;52.806;18.270;2023-04-30T05:51:21;9.18;;;2.97;;
51927;SDS011;37953;52.806;18.270;2023-04-30T05:53:47;8.13;;;3.30;;
51927;SDS011;37953;52.806;18.270;2023-04-30T05:56:13;7.47;;;3.22;;
51927;SDS011;37953;52.806;18.270;2023-04-30T05:58:40;9.93;;;3.30;;
51927;SDS011;37953;52.806;18.270;2023-04-30T06:01:06;17.40;;;3.50;;
51927;SDS011;37953;52.806;18.270;2023-04-30T06:03:35;18.98;;;3.90;;
51927;SDS011;37953;52.806;18.270;2023-04-30T06:06:03;24.60;;;4.07;;
51927;SDS011;37953;52.806;18.270;2023-04-30T06:08:29;20.83;;;3.78;;
51927;SDS011;37953;52.806;18.270;2023-04-30T06:10:55;22.25;;;3.67;;
51927;SDS011;37953;52.806;18.270;2023-04-30T06:13:21;23.55;;;3.80;;
51927;SDS011;37953;52.806;18.270;2023-04-30T06:15:47;23.05;;;3.92;;
51927;SDS011;37953;52.806;18.270;2023-04-30T06:18:13;15.85;;;3.50;;
51927;SDS011;37953;52.806;18.270;2023-04-30T06:20:40;24.75;;;4.22;;
51927;SDS011;37953;52.806;18.270;2023-04-30T06:23:07;19.33;;;3.40;;
51927;SDS011;37953;52.806;18.270;2023-04-30T06:25:33;27.83;;;3.95;;
51927;SDS011;37953;52.806;18.270;2023-04-30T06:27:59;20.52;;;4.07;;
51927;SDS011;37953;52.806;18.270;2023-04-30T06:30:26;10.43;;;3.55;;
51927;SDS011;37953;52.806;18.270;2023-04-30T06:32:52;12.55;;;3.78;;
51927;SDS011;37953;52.806;18.270;2023-04-30T06:35:18;12.15;;;3.13;;
51927;SDS011;37953;52.806;18.270;2023-04-30T06:37:47;13.05;;;3.80;;
51927;SDS011;37953;52.806;18.270;2023-04-30T06:40:13;8.77;;;3.03;;
51927;SDS011;37953;52.806;18.270;2023-04-30T06:42:39;10.05;;;3.60;;
51927;SDS011;37953;52.806;18.270;2023-04-30T06:45:05;9.60;;;2.60;;
51927;SDS011;37953;52.806;18.270;2023-04-30T06:47:32;14.30;;;2.63;;
51927;SDS011;37953;52.806;18.270;2023-04-30T06:49:59;12.73;;;2.60;;
51927;SDS011;37953;52.806;18.270;2023-04-30T06:52:26;7.35;;;2.80;;
51927;SDS011;37953;52.806;18.270;2023-04-30T06:54:54;9.20;;;2.63;;
51927;SDS011;37953;52.806;18.270;2023-04-30T06:57:21;9.20;;;2.50;;
51927;SDS011;37953;52.806;18.270;2023-04-30T06:59:47;60.67;;;5.30;;
51927;SDS011;37953;52.806;18.270;2023-04-30T07:02:13;17.58;;;3.58;;
51927;SDS011;37953;52.806;18.270;2023-04-30T07:04:39;14.82;;;3.05;;
51927;SDS011;37953;52.806;18.270;2023-04-30T07:07:05;17.85;;;3.15;;
51927;SDS011;37953;52.806;18.270;2023-04-30T07:09:31;18.08;;;3.13;;
51927;SDS011;37953;52.806;18.270;2023-04-30T07:11:57;18.67;;;2.95;;
51927;SDS011;37953;52.806;18.270;2023-04-30T07:14:23;17.60;;;3.30;;
51927;SDS011;37953;52.806;18.270;2023-04-30T07:16:49;12.55;;;3.00;;
51927;SDS011;37953;52.806;18.270;2023-04-30T07:19:15;18.67;;;3.63;;
51927;SDS011;37953;52.806;18.270;2023-04-30T07:21:42;17.60;;;3.38;;
51927;SDS011;37953;52.806;18.270;2023-04-30T07:24:08;17.00;;;3.20;;
51927;SDS011;37953;52.806;18.270;2023-04-30T07:26:47;24.83;;;4.00;;
51927;SDS011;37953;52.806;18.270;2023-04-30T07:29:13;17.08;;;3.42;;
51927;SDS011;37953;52.806;18.270;2023-04-30T07:31:39;8.02;;;2.65;;
51927;SDS011;37953;52.806;18.270;2023-04-30T07:34:05;12.45;;;2.53;;
51927;SDS011;37953;52.806;18.270;2023-04-30T07:36:31;8.43;;;2.65;;
51927;SDS011;37953;52.806;18.270;2023-04-30T07:38:56;8.48;;;2.67;;
51927;SDS011;37953;52.806;18.270;2023-04-30T07:41:23;6.25;;;2.63;;
51927;SDS011;37953;52.806;18.270;2023-04-30T07:43:49;7.38;;;2.83;;
51927;SDS011;37953;52.806;18.270;2023-04-30T07:46:16;7.60;;;2.40;;
51927;SDS011;37953;52.806;18.270;2023-04-30T07:48:42;9.77;;;2.80;;
51927;SDS011;37953;52.806;18.270;2023-04-30T07:51:08;6.13;;;2.20;;
51927;SDS011;37953;52.806;18.270;2023-04-30T07:53:34;9.23;;;2.20;;
51927;SDS011;37953;52.806;18.270;2023-04-30T07:56:00;7.93;;;2.50;;
51927;SDS011;37953;52.806;18.270;2023-04-30T07:58:26;7.53;;;2.13;;
51927;SDS011;37953;52.806;18.270;2023-04-30T08:00:52;7.15;;;2.13;;
51927;SDS011;37953;52.806;18.270;2023-04-30T08:03:18;7.82;;;2.22;;
51927;SDS011;37953;52.806;18.270;2023-04-30T08:05:45;6.13;;;2.35;;
51927;SDS011;37953;52.806;18.270;2023-04-30T08:08:11;5.95;;;2.17;;
51927;SDS011;37953;52.806;18.270;2023-04-30T08:10:38;8.43;;;2.85;;
51927;SDS011;37953;52.806;18.270;2023-04-30T08:13:04;12.35;;;1.90;;
51927;SDS011;37953;52.806;18.270;2023-04-30T08:15:32;11.75;;;2.20;;
51927;SDS011;37953;52.806;18.270;2023-04-30T08:17:58;8.95;;;1.80;;
51927;SDS011;37953;52.806;18.270;2023-04-30T08:20:24;11.20;;;1.95;;
51927;SDS011;37953;52.806;18.270;2023-04-30T08:22:50;11.32;;;2.08;;
51927;SDS011;37953;52.806;18.270;2023-04-30T08:25:17;10.25;;;2.17;;
51927;SDS011;37953;52.806;18.270;2023-04-30T08:27:43;6.18;;;1.58;;
51927;SDS011;37953;52.806;18.270;2023-04-30T08:30:09;4.05;;;1.48;;
51927;SDS011;37953;52.806;18.270;2023-04-30T08:32:36;5.32;;;1.58;;
51927;SDS011;37953;52.806;18.270;2023-04-30T08:35:15;9.45;;;2.20;;
51927;SDS011;37953;52.806;18.270;2023-04-30T08:37:44;5.68;;;1.58;;
51927;SDS011;37953;52.806;18.270;2023-04-30T08:40:10;4.88;;;1.45;;
51927;SDS011;37953;52.806;18.270;2023-04-30T08:42:43;4.63;;;1.83;;
51927;SDS011;37953;52.806;18.270;2023-04-30T08:45:12;7.05;;;2.03;;
51927;SDS011;37953;52.806;18.270;2023-04-30T08:47:44;7.65;;;2.20;;
51927;SDS011;37953;52.806;18.270;2023-04-30T08:50:11;8.63;;;2.53;;
51927;SDS011;37953;52.806;18.270;2023-04-30T08:52:37;4.60;;;1.63;;
51927;SDS011;37953;52.806;18.270;2023-04-30T08:55:06;5.80;;;1.80;;
51927;SDS011;37953;52.806;18.270;2023-04-30T08:57:33;6.47;;;1.80;;
51927;SDS011;37953;52.806;18.270;2023-04-30T08:59:59;10.57;;;2.03;;
51927;SDS011;37953;52.806;18.270;2023-04-30T09:02:25;4.90;;;1.25;;
51927;SDS011;37953;52.806;18.270;2023-04-30T09:04:51;8.40;;;1.67;;
51927;SDS011;37953;52.806;18.270;2023-04-30T09:07:17;5.35;;;1.42;;
51927;SDS011;37953;52.806;18.270;2023-04-30T09:09:45;4.97;;;1.63;;
51927;SDS011;37953;52.806;18.270;2023-04-30T09:12:14;6.03;;;1.60;;
51927;SDS011;37953;52.806;18.270;2023-04-30T09:15:03;6.85;;;1.50;;
51927;SDS011;37953;52.806;18.270;2023-04-30T09:17:30;5.53;;;1.55;;
51927;SDS011;37953;52.806;18.270;2023-04-30T09:20:10;4.65;;;1.70;;
51927;SDS011;37953;52.806;18.270;2023-04-30T09:22:37;10.63;;;2.10;;
51927;SDS011;37953;52.806;18.270;2023-04-30T09:25:05;8.55;;;1.80;;
51927;SDS011;37953;52.806;18.270;2023-04-30T09:27:32;5.35;;;2.00;;
51927;SDS011;37953;52.806;18.270;2023-04-30T09:29:58;23.10;;;3.20;;
51927;SDS011;37953;52.806;18.270;2023-04-30T09:32:25;11.63;;;2.50;;
51927;SDS011;37953;52.806;18.270;2023-04-30T09:34:51;10.60;;;2.03;;
51927;SDS011;37953;52.806;18.270;2023-04-30T09:37:17;13.18;;;2.72;;
51927;SDS011;37953;52.806;18.270;2023-04-30T09:39:50;8.48;;;2.03;;
51927;SDS011;37953;52.806;18.270;2023-04-30T09:42:24;11.07;;;2.10;;
51927;SDS011;37953;52.806;18.270;2023-04-30T09:44:50;7.25;;;1.90;;
51927;SDS011;37953;52.806;18.270;2023-04-30T09:47:26;12.57;;;1.67;;
51927;SDS011;37953;52.806;18.270;2023-04-30T09:49:55;11.52;;;2.10;;
51927;SDS011;37953;52.806;18.270;2023-04-30T09:52:24;11.70;;;1.80;;
51927;SDS011;37953;52.806;18.270;2023-04-30T09:54:50;8.52;;;1.63;;
51927;SDS011;37953;52.806;18.270;2023-04-30T09:57:16;15.43;;;2.10;;
51927;SDS011;37953;52.806;18.270;2023-04-30T09:59:47;10.95;;;2.13;;
51927;SDS011;37953;52.806;18.270;2023-04-30T10:02:16;13.73;;;2.58;;
51927;SDS011;37953;52.806;18.270;2023-04-30T10:04:46;10.20;;;1.95;;
51927;SDS011;37953;52.806;18.270;2023-04-30T10:07:18;9.50;;;2.42;;
51927;SDS011;37953;52.806;18.270;2023-04-30T10:12:18;12.18;;;2.08;;
51927;SDS011;37953;52.806;18.270;2023-04-30T10:15:08;8.82;;;1.73;;
51927;SDS011;37953;52.806;18.270;2023-04-30T10:17:35;9.70;;;2.33;;
51927;SDS011;37953;52.806;18.270;2023-04-30T10:20:12;8.40;;;2.13;;
51927;SDS011;37953;52.806;18.270;2023-04-30T10:22:39;11.50;;;1.90;;
51927;SDS011;37953;52.806;18.270;2023-04-30T10:25:06;15.45;;;2.28;;
51927;SDS011;37953;52.806;18.270;2023-04-30T10:27:39;9.93;;;1.83;;
51927;SDS011;37953;52.806;18.270;2023-04-30T10:30:09;14.30;;;2.58;;
51927;SDS011;37953;52.806;18.270;2023-04-30T10:38:29;12.25;;;2.17;;
51927;SDS011;37953;52.806;18.270;2023-04-30T10:41:04;16.08;;;2.25;;
51927;SDS011;37953;52.806;18.270;2023-04-30T10:43:31;12.95;;;2.22;;
51927;SDS011;37953;52.806;18.270;2023-04-30T10:46:03;10.27;;;2.03;;
51927;SDS011;37953;52.806;18.270;2023-04-30T10:48:30;11.18;;;1.77;;
51927;SDS011;37953;52.806;18.270;2023-04-30T10:51:07;12.93;;;2.00;;
51927;SDS011;37953;52.806;18.270;2023-04-30T10:53:35;12.70;;;2.08;;
51927;SDS011;37953;52.806;18.270;2023-04-30T10:56:07;13.88;;;2.50;;
51927;SDS011;37953;52.806;18.270;2023-04-30T10:58:34;12.40;;;2.17;;
51927;SDS011;37953;52.806;18.270;2023-04-30T11:01:21;6.95;;;1.85;;
51927;SDS011;37953;52.806;18.270;2023-04-30T11:06:48;4.63;;;1.60;;
51927;SDS011;37953;52.806;18.270;2023-04-30T11:09:35;3.13;;;1.70;;
51927;SDS011;37953;52.806;18.270;2023-04-30T11:12:04;5.78;;;1.55;;
51927;SDS011;37953;52.806;18.270;2023-04-30T11:14:38;4.55;;;1.60;;
51927;SDS011;37953;52.806;18.270;2023-04-30T11:17:06;5.15;;;1.45;;
51927;SDS011;37953;52.806;18.270;2023-04-30T11:19:34;3.92;;;1.48;;
51927;SDS011;37953;52.806;18.270;2023-04-30T11:27:35;3.90;;;1.90;;
51927;SDS011;37953;52.806;18.270;2023-04-30T11:30:05;131.00;;;13.90;;
51927;SDS011;37953;52.806;18.270;2023-04-30T11:32:50;3.08;;;1.83;;
51927;SDS011;37953;52.806;18.270;2023-04-30T11:35:26;8.45;;;1.83;;
51927;SDS011;37953;52.806;18.270;2023-04-30T11:37:53;5.00;;;1.80;;
51927;SDS011;37953;52.806;18.270;2023-04-30T11:40:26;24.13;;;3.38;;
51927;SDS011;37953;52.806;18.270;2023-04-30T11:42:54;12.32;;;2.15;;
51927;SDS011;37953;52.806;18.270;2023-04-30T11:45:21;12.77;;;1.95;;
51927;SDS011;37953;52.806;18.270;2023-04-30T11:47:48;13.10;;;2.38;;
51927;SDS011;37953;52.806;18.270;2023-04-30T11:50:17;17.88;;;2.63;;
51927;SDS011;37953;52.806;18.270;2023-04-30T11:52:49;19.02;;;2.78;;
51927;SDS011;37953;52.806;18.270;2023-04-30T11:55:20;12.23;;;2.10;;
51927;SDS011;37953;52.806;18.270;2023-04-30T11:57:48;16.15;;;2.47;;
51927;SDS011;37953;52.806;18.270;2023-04-30T12:00:16;14.95;;;2.45;;
51927;SDS011;37953;52.806;18.270;2023-04-30T12:02:50;8.38;;;1.73;;
51927;SDS011;37953;52.806;18.270;2023-04-30T12:05:19;6.18;;;1.65;;
51927;SDS011;37953;52.806;18.270;2023-04-30T12:07:50;10.38;;;1.92;;
51927;SDS011;37953;52.806;18.270;2023-04-30T12:10:24;11.05;;;2.20;;
51927;SDS011;37953;52.806;18.270;2023-04-30T12:12:50;8.75;;;2.13;;
51927;SDS011;37953;52.806;18.270;2023-04-30T12:15:18;9.55;;;1.90;;
51927;SDS011;37953;52.806;18.270;2023-04-30T12:17:55;11.48;;;2.10;;
51927;SDS011;37953;52.806;18.270;2023-04-30T12:20:28;13.70;;;1.90;;
51927;SDS011;37953;52.806;18.270;2023-04-30T12:22:56;7.35;;;1.77;;
51927;SDS011;37953;52.806;18.270;2023-04-30T12:25:23;8.25;;;1.73;;
51927;SDS011;37953;52.806;18.270;2023-04-30T12:27:52;8.70;;;1.92;;
51927;SDS011;37953;52.806;18.270;2023-04-30T12:30:21;4.80;;;1.40;;
51927;SDS011;37953;52.806;18.270;2023-04-30T12:32:51;5.53;;;1.50;;
51927;SDS011;37953;52.806;18.270;2023-04-30T12:35:22;4.57;;;1.70;;
51927;SDS011;37953;52.806;18.270;2023-04-30T12:37:50;4.18;;;1.52;;
51927;SDS011;37953;52.806;18.270;2023-04-30T12:40:26;3.65;;;1.40;;
51927;SDS011;37953;52.806;18.270;2023-04-30T12:43:25;7.75;;;1.75;;
51927;SDS011;37953;52.806;18.270;2023-04-30T12:48:12;5.65;;;1.70;;
51927;SDS011;37953;52.806;18.270;2023-04-30T12:50:40;6.13;;;2.88;;
51927;SDS011;37953;52.806;18.270;2023-04-30T12:53:06;6.75;;;2.17;;
51927;SDS011;37953;52.806;18.270;2023-04-30T12:55:33;6.55;;;1.73;;
51927;SDS011;37953;52.806;18.270;2023-04-30T12:58:02;5.13;;;1.75;;
51927;SDS011;37953;52.806;18.270;2023-04-30T13:00:44;5.00;;;1.35;;
51927;SDS011;37953;52.806;18.270;2023-04-30T13:03:18;2.95;;;1.30;;
51927;SDS011;37953;52.806;18.270;2023-04-30T13:05:49;4.90;;;1.60;;
51927;SDS011;37953;52.806;18.270;2023-04-30T13:08:17;8.23;;;1.42;;
51927;SDS011;37953;52.806;18.270;2023-04-30T13:10:44;3.92;;;1.52;;
51927;SDS011;37953;52.806;18.270;2023-04-30T13:13:12;5.10;;;1.60;;
51927;SDS011;37953;52.806;18.270;2023-04-30T13:15:39;5.68;;;1.60;;
51927;SDS011;37953;52.806;18.270;2023-04-30T13:18:08;4.05;;;1.33;;
51927;SDS011;37953;52.806;18.270;2023-04-30T13:20:35;6.30;;;1.90;;
51927;SDS011;37953;52.806;18.270;2023-04-30T13:23:05;7.80;;;1.77;;
51927;SDS011;37953;52.806;18.270;2023-04-30T13:25:31;6.15;;;1.50;;
51927;SDS011;37953;52.806;18.270;2023-04-30T13:27:58;7.55;;;1.98;;
51927;SDS011;37953;52.806;18.270;2023-04-30T13:30:24;5.22;;;1.83;;
51927;SDS011;37953;52.806;18.270;2023-04-30T13:32:50;5.72;;;1.77;;
51927;SDS011;37953;52.806;18.270;2023-04-30T13:35:17;6.25;;;1.67;;
51927;SDS011;37953;52.806;18.270;2023-04-30T13:37:43;5.88;;;1.70;;
51927;SDS011;37953;52.806;18.270;2023-04-30T13:40:10;4.35;;;1.60;;
51927;SDS011;37953;52.806;18.270;2023-04-30T13:42:36;5.93;;;1.70;;
51927;SDS011;37953;52.806;18.270;2023-04-30T13:45:06;5.15;;;1.13;;
51927;SDS011;37953;52.806;18.270;2023-04-30T13:47:33;6.50;;;1.55;;
51927;SDS011;37953;52.806;18.270;2023-04-30T13:50:00;3.80;;;1.27;;
51927;SDS011;37953;52.806;18.270;2023-04-30T13:52:27;3.67;;;1.45;;
51927;SDS011;37953;52.806;18.270;2023-04-30T13:54:53;4.00;;;1.50;;
51927;SDS011;37953;52.806;18.270;2023-04-30T13:57:19;3.92;;;1.52;;
51927;SDS011;37953;52.806;18.270;2023-04-30T13:59:45;6.72;;;1.88;;
51927;SDS011;37953;52.806;18.270;2023-04-30T14:02:11;8.85;;;1.73;;
51927;SDS011;37953;52.806;18.270;2023-04-30T14:04:37;12.50;;;2.25;;
51927;SDS011;37953;52.806;18.270;2023-04-30T14:07:03;10.88;;;2.00;;
51927;SDS011;37953;52.806;18.270;2023-04-30T14:09:29;11.63;;;1.80;;
51927;SDS011;37953;52.806;18.270;2023-04-30T14:11:55;15.40;;;1.95;;
51927;SDS011;37953;52.806;18.270;2023-04-30T14:14:28;9.05;;;1.77;;
51927;SDS011;37953;52.806;18.270;2023-04-30T14:17:08;10.23;;;2.55;;
51927;SDS011;37953;52.806;18.270;2023-04-30T14:19:35;9.80;;;2.30;;
51927;SDS011;37953;52.806;18.270;2023-04-30T14:22:01;12.98;;;2.60;;
51927;SDS011;37953;52.806;18.270;2023-04-30T14:24:27;10.10;;;2.38;;
51927;SDS011;37953;52.806;18.270;2023-04-30T14:26:53;15.27;;;3.22;;
51927;SDS011;37953;52.806;18.270;2023-04-30T14:29:19;12.68;;;2.30;;
51927;SDS011;37953;52.806;18.270;2023-04-30T14:31:45;10.45;;;2.13;;
51927;SDS011;37953;52.806;18.270;2023-04-30T14:34:11;13.15;;;2.15;;
51927;SDS011;37953;52.806;18.270;2023-04-30T14:36:37;12.73;;;2.33;;
51927;SDS011;37953;52.806;18.270;2023-04-30T14:39:07;11.15;;;2.00;;
51927;SDS011;37953;52.806;18.270;2023-04-30T14:41:34;12.10;;;2.42;;
51927;SDS011;37953;52.806;18.270;2023-04-30T14:44:01;10.73;;;2.40;;
51927;SDS011;37953;52.806;18.270;2023-04-30T14:46:28;10.98;;;2.40;;
51927;SDS011;37953;52.806;18.270;2023-04-30T14:48:54;13.15;;;2.08;;
51927;SDS011;37953;52.806;18.270;2023-04-30T14:51:20;13.80;;;2.40;;
51927;SDS011;37953;52.806;18.270;2023-04-30T14:53:46;12.50;;;2.40;;
51927;SDS011;37953;52.806;18.270;2023-04-30T14:56:12;12.82;;;2.63;;
51927;SDS011;37953;52.806;18.270;2023-04-30T14:58:38;13.68;;;2.90;;
51927;SDS011;37953;52.806;18.270;2023-04-30T15:01:04;8.15;;;2.40;;
51927;SDS011;37953;52.806;18.270;2023-04-30T15:03:30;7.85;;;2.05;;
51927;SDS011;37953;52.806;18.270;2023-04-30T15:05:56;4.50;;;1.70;;
51927;SDS011;37953;52.806;18.270;2023-04-30T15:08:24;5.57;;;1.80;;